Time;durP1;ratioP1;P1;durP2;ratioP2;P2;SDS_P1;SDS_P2;PMS_P1;PMS_P2;Temp;Humidity;BMP_temperature;BMP_pressure;BME280_temperature;BME280_humidity;BME280_pressure;Samples;Min_cycle;Max_cycle;Signal;HPM_P1;HPM_P2
2023/01/16 00:00:04;;;;;;;63.55;47.08;;;14.90;73.10;;;;;;4918993;28;96994;-66
2023/01/16 00:02:30;;;;;;;65.40;47.78;;;14.90;72.80;;;;;;4929272;28;95839;-63
2023/01/16 00:04:55;;;;;;;66.50;47.85;;;14.80;73.00;;;;;;4922244;28;95168;-66
2023/01/16 00:07:21;;;;;;;66.18;47.70;;;14.80;72.90;;;;;;4915085;28;97043;-67
2023/01/16 00:09:46;;;;;;;65.57;47.83;;;14.80;72.90;;;;;;4917019;28;95264;-66
2023/01/16 00:12:12;;;;;;;63.95;47.35;;;14.80;72.80;;;;;;4921514;28;100692;-62
2023/01/16 00:14:38;;;;;;;64.25;47.67;;;14.80;72.80;;;;;;4923622;28;95482;-66
2023/01/16 00:17:03;;;;;;;65.93;47.92;;;14.80;72.60;;;;;;4916879;28;99177;-63
2023/01/16 00:19:29;;;;;;;66.28;47.72;;;14.80;72.70;;;;;;4920110;28;96586;-63
2023/01/16 00:21:55;;;;;;;65.03;47.72;;;14.80;72.60;;;;;;4928321;28;95054;-65
2023/01/16 00:24:20;;;;;;;65.80;47.60;;;14.70;72.60;;;;;;4927227;28;94890;-66
2023/01/16 00:26:50;;;;;;;64.05;47.47;;;14.80;72.80;;;;;;4916787;28;95694;-65
2023/01/16 00:29:16;;;;;;;66.50;47.65;;;14.80;72.70;;;;;;4924599;28;99413;-63
2023/01/16 00:31:41;;;;;;;64.00;47.47;;;14.70;72.50;;;;;;4935022;28;96277;-65
2023/01/16 00:34:07;;;;;;;64.82;47.47;;;14.70;72.70;;;;;;4920246;28;97310;-61
2023/01/16 00:36:32;;;;;;;65.07;47.60;;;14.70;72.70;;;;;;4924672;28;95285;-66
2023/01/16 00:38:58;;;;;;;63.88;47.33;;;14.70;72.50;;;;;;4921151;28;95070;-55
2023/01/16 00:41:24;;;;;;;64.88;47.53;;;14.70;72.40;;;;;;4922284;28;101306;-66
2023/01/16 00:43:51;;;;;;;65.30;47.65;;;14.70;72.50;;;;;;4923815;28;95711;-65
2023/01/16 00:46:17;;;;;;;64.75;47.65;;;14.70;72.60;;;;;;4917526;28;96446;-65
2023/01/16 00:48:43;;;;;;;65.57;47.58;;;14.70;72.50;;;;;;4928731;28;96113;-65
2023/01/16 00:51:08;;;;;;;65.55;47.55;;;14.70;72.40;;;;;;4924981;28;96115;-59
2023/01/16 00:53:34;;;;;;;64.45;47.35;;;14.60;72.40;;;;;;4918167;28;95982;-66
2023/01/16 00:56:00;;;;;;;64.20;47.35;;;14.70;72.50;;;;;;4925620;28;96238;-60
2023/01/16 00:58:25;;;;;;;64.80;47.45;;;14.60;72.40;;;;;;4926346;28;96271;-65
2023/01/16 01:00:51;;;;;;;65.05;47.58;;;14.60;72.30;;;;;;4921636;28;101149;-66
2023/01/16 01:03:17;;;;;;;64.00;47.42;;;14.60;72.50;;;;;;4922035;28;95798;-66
2023/01/16 01:05:43;;;;;;;64.32;47.40;;;14.60;72.40;;;;;;4922565;28;98430;-65
2023/01/16 01:08:08;;;;;;;63.88;47.55;;;14.60;72.30;;;;;;4921728;28;95460;-64
2023/01/16 01:10:38;;;;;;;65.07;47.90;;;14.60;72.30;;;;;;4920247;28;96212;-59
2023/01/16 01:13:04;;;;;;;64.70;47.65;;;14.60;72.20;;;;;;4916990;28;98472;-65
2023/01/16 01:15:29;;;;;;;64.82;47.40;;;14.60;72.20;;;;;;4923275;28;95427;-65
2023/01/16 01:17:55;;;;;;;63.85;47.35;;;14.60;72.20;;;;;;4927135;28;97571;-63
2023/01/16 01:20:20;;;;;;;64.45;47.35;;;14.60;72.10;;;;;;4914770;28;100801;-67
2023/01/16 01:22:46;;;;;;;64.78;47.58;;;14.60;72.20;;;;;;4919724;28;98190;-65
2023/01/16 01:25:13;;;;;;;64.22;47.78;;;14.60;72.30;;;;;;4926862;28;95429;-61
2023/01/16 01:27:38;;;;;;;64.40;47.70;;;14.60;72.10;;;;;;4937052;28;95132;-66
2023/01/16 01:30:04;;;;;;;64.45;47.38;;;14.60;72.10;;;;;;4920693;28;94636;-66
2023/01/16 01:32:30;;;;;;;64.43;47.65;;;14.60;72.20;;;;;;4924638;28;95492;-66
2023/01/16 01:34:56;;;;;;;65.22;47.80;;;14.60;72.10;;;;;;4917232;28;97346;-65
2023/01/16 01:37:22;;;;;;;64.97;47.53;;;14.60;72.10;;;;;;4916711;28;94972;-66
2023/01/16 01:39:47;;;;;;;65.15;47.58;;;14.60;72.00;;;;;;4918298;28;100097;-58
2023/01/16 01:45:19;;;;;;;65.38;47.58;;;14.60;72.00;;;;;;4921724;28;96758;-66
2023/01/16 01:47:54;;;;;;;64.90;47.45;;;14.60;72.00;;;;;;4926917;28;95407;-65
2023/01/16 01:50:32;;;;;;;65.43;47.78;;;14.50;72.10;;;;;;4915738;28;96098;-67
2023/01/16 01:53:00;;;;;;;65.50;47.60;;;14.60;72.00;;;;;;4914842;28;98007;-66
2023/01/16 01:55:26;;;;;;;65.35;47.75;;;14.50;71.90;;;;;;4928545;28;95370;-64
2023/01/16 01:57:57;;;;;;;64.93;47.65;;;14.60;71.90;;;;;;4924431;28;95365;-61
2023/01/16 02:00:26;;;;;;;65.25;47.58;;;14.60;71.80;;;;;;4916685;28;95380;-65
2023/01/16 02:03:15;;;;;;;65.30;47.63;;;14.50;72.00;;;;;;4911311;28;99889;-66
2023/01/16 02:05:49;;;;;;;65.57;47.63;;;14.50;71.80;;;;;;4916556;28;97211;-66
2023/01/16 02:08:17;;;;;;;64.55;47.83;;;14.50;71.80;;;;;;4917353;28;96756;-66
2023/01/16 02:10:51;;;;;;;64.18;47.75;;;14.50;71.70;;;;;;4942338;28;98987;-60
2023/01/16 02:13:17;;;;;;;64.65;47.70;;;14.50;71.70;;;;;;4922148;28;96591;-65
2023/01/16 02:21:26;;;;;;;64.18;47.33;;;14.50;71.80;;;;;;4919967;28;97365;-65
2023/01/16 02:24:33;;;;;;;64.55;47.50;;;14.50;71.70;;;;;;4926887;28;99612;-66
2023/01/16 02:27:08;;;;;;;65.78;47.55;;;14.50;71.60;;;;;;4875617;28;96858;-65
2023/01/16 02:30:00;;;;;;;64.95;47.55;;;14.50;71.50;;;;;;4878979;28;94564;-60
2023/01/16 02:33:02;;;;;;;64.07;47.50;;;14.50;71.60;;;;;;4901432;28;95425;-65
2023/01/16 02:35:46;;;;;;;65.60;47.97;;;14.50;71.70;;;;;;4917661;28;95336;-67
2023/01/16 02:38:22;;;;;;;64.55;47.35;;;14.50;72.30;;;;;;4917469;28;98837;-65
2023/01/16 02:40:58;;;;;;;65.28;47.63;;;14.50;71.50;;;;;;4918738;28;96534;-65
2023/01/16 02:43:44;;;;;;;65.00;47.65;;;14.50;71.70;;;;;;4924439;28;96421;-60
2023/01/16 02:46:23;;;;;;;67.25;47.85;;;14.50;71.70;;;;;;4918157;28;96095;-66
2023/01/16 02:49:02;;;;;;;64.15;47.72;;;14.50;71.70;;;;;;4925585;28;95139;-60
2023/01/16 02:51:40;;;;;;;64.57;47.53;;;14.50;71.60;;;;;;4927016;28;96070;-66
2023/01/16 02:54:21;;;;;;;65.32;47.65;;;14.50;71.60;;;;;;4920563;28;96189;-65
2023/01/16 02:57:18;;;;;;;64.28;47.60;;;14.40;71.60;;;;;;4911587;28;94786;-63
2023/01/16 02:59:44;;;;;;;64.88;47.60;;;14.40;71.60;;;;;;4920529;28;95684;-66
2023/01/16 03:02:10;;;;;;;64.80;47.58;;;14.40;71.70;;;;;;4916724;28;96783;-65
2023/01/16 03:04:35;;;;;;;64.38;47.45;;;14.40;71.60;;;;;;4916132;28;97146;-64
2023/01/16 03:07:34;;;;;;;63.60;47.42;;;14.40;71.60;;;;;;4922785;28;95927;-61
2023/01/16 03:10:27;;;;;;;64.18;47.40;;;14.40;71.60;;;;;;4920696;28;95862;-60
2023/01/16 03:13:08;;;;;;;64.93;47.38;;;14.40;71.60;;;;;;4916230;28;95964;-65
2023/01/16 03:15:44;;;;;;;64.93;47.40;;;14.40;71.60;;;;;;4912926;28;96206;-66
2023/01/16 03:18:33;;;;;;;64.75;47.55;;;14.40;71.60;;;;;;4922027;28;95767;-66
2023/01/16 03:21:01;;;;;;;65.93;47.75;;;14.40;71.60;;;;;;4920713;28;95090;-61
2023/01/16 03:23:54;;;;;;;64.53;47.53;;;14.40;71.50;;;;;;4917645;28;95490;-66
2023/01/16 03:26:33;;;;;;;63.85;47.22;;;14.30;71.50;;;;;;4915978;28;98778;-66
2023/01/16 03:29:17;;;;;;;66.68;47.63;;;14.30;71.50;;;;;;4916227;28;100650;-63
2023/01/16 03:31:56;;;;;;;65.22;47.67;;;14.30;71.50;;;;;;4911828;28;96999;-64
2023/01/16 03:34:40;;;;;;;65.25;47.42;;;14.30;71.50;;;;;;4914669;28;96457;-65
2023/01/16 03:37:27;;;;;;;64.55;47.55;;;14.30;71.40;;;;;;4929912;28;96337;-65
2023/01/16 03:40:04;;;;;;;64.72;47.55;;;14.30;71.50;;;;;;4921918;28;96891;-65
2023/01/16 03:42:39;;;;;;;66.28;47.70;;;14.30;71.50;;;;;;4920003;28;96070;-65
2023/01/16 03:45:17;;;;;;;63.78;47.35;;;14.20;71.60;;;;;;4920709;28;95357;-65
2023/01/16 03:47:56;;;;;;;65.57;47.47;;;14.20;71.80;;;;;;4933580;28;95199;-64
2023/01/16 03:50:24;;;;;;;65.43;47.38;;;14.20;71.50;;;;;;4915945;28;94378;-66
2023/01/16 03:52:56;;;;;;;64.65;47.55;;;14.20;71.60;;;;;;4922063;28;95383;-65
2023/01/16 03:55:41;;;;;;;64.22;47.55;;;14.20;71.50;;;;;;4922006;28;95095;-66
2023/01/16 03:58:30;;;;;;;65.30;47.42;;;14.20;71.60;;;;;;4906434;28;100259;-64
2023/01/16 04:01:03;;;;;;;65.47;48.05;;;14.20;71.60;;;;;;4919536;28;96123;-63
2023/01/16 04:03:39;;;;;;;65.53;48.08;;;14.20;71.40;;;;;;4919544;28;96825;-58
2023/01/16 04:06:14;;;;;;;67.57;48.20;;;14.20;71.40;;;;;;4922725;28;95238;-65
2023/01/16 04:08:43;;;;;;;65.53;48.20;;;14.20;71.50;;;;;;4914511;28;95997;-65
2023/01/16 04:11:11;;;;;;;66.70;47.85;;;14.20;71.40;;;;;;4911485;28;95107;-56
2023/01/16 04:13:40;;;;;;;65.32;47.80;;;14.20;71.50;;;;;;4924274;28;95055;-66
2023/01/16 04:16:10;;;;;;;65.72;47.63;;;14.10;71.50;;;;;;4928100;28;94909;-63
2023/01/16 04:18:37;;;;;;;64.43;47.65;;;14.10;71.70;;;;;;4918891;28;97790;-64
2023/01/16 04:21:06;;;;;;;65.18;47.67;;;14.10;71.50;;;;;;4919364;28;95334;-65
2023/01/16 04:23:32;;;;;;;66.47;48.10;;;14.10;71.60;;;;;;4911276;28;98452;-66
2023/01/16 04:25:57;;;;;;;64.30;47.53;;;14.10;71.40;;;;;;4914796;28;96931;-62
2023/01/16 04:28:23;;;;;;;64.90;47.85;;;14.10;71.50;;;;;;4919003;28;95977;-64
2023/01/16 04:30:48;;;;;;;65.38;47.88;;;14.10;71.30;;;;;;4932192;28;96572;-66
2023/01/16 04:33:14;;;;;;;66.55;47.72;;;14.10;71.60;;;;;;4923351;28;97454;-64
2023/01/16 04:35:40;;;;;;;64.68;47.72;;;14.10;71.50;;;;;;4917741;28;95744;-67
2023/01/16 04:38:06;;;;;;;68.10;48.05;;;14.10;71.60;;;;;;4919761;28;97798;-58
2023/01/16 04:40:31;;;;;;;65.28;47.83;;;14.10;71.50;;;;;;4921730;28;96608;-65
2023/01/16 04:42:57;;;;;;;64.53;47.85;;;14.10;71.50;;;;;;4928466;28;95288;-66
2023/01/16 04:45:23;;;;;;;66.40;47.53;;;14.10;71.60;;;;;;4924415;28;97780;-65
2023/01/16 04:47:50;;;;;;;64.45;47.55;;;14.10;71.50;;;;;;4925344;28;96701;-56
2023/01/16 04:50:16;;;;;;;64.15;47.50;;;14.00;71.50;;;;;;4919980;28;100063;-65
2023/01/16 04:52:42;;;;;;;63.90;47.42;;;14.10;71.50;;;;;;4917504;28;96033;-65
2023/01/16 04:55:09;;;;;;;66.43;47.65;;;14.10;71.70;;;;;;4920681;28;95343;-57
2023/01/16 04:57:35;;;;;;;65.20;47.95;;;14.00;71.50;;;;;;4921204;28;96412;-61
2023/01/16 05:00:00;;;;;;;65.93;47.53;;;14.00;71.60;;;;;;4926331;28;97030;-66
2023/01/16 05:02:26;;;;;;;64.35;47.50;;;14.00;71.60;;;;;;4913208;28;102681;-66
2023/01/16 05:04:52;;;;;;;63.55;47.40;;;14.00;71.60;;;;;;4923963;28;95274;-61
2023/01/16 05:07:17;;;;;;;64.60;47.78;;;14.00;71.80;;;;;;4921939;28;98177;-63
2023/01/16 05:09:43;;;;;;;64.22;47.55;;;14.00;71.60;;;;;;4911317;28;95803;-64
2023/01/16 05:12:09;;;;;;;64.47;47.55;;;14.00;71.60;;;;;;4931282;28;95649;-64
2023/01/16 05:14:34;;;;;;;64.45;47.72;;;14.00;71.60;;;;;;4922554;28;96883;-60
2023/01/16 05:17:00;;;;;;;64.45;47.15;;;14.00;71.90;;;;;;4915595;28;94775;-64
2023/01/16 05:19:25;;;;;;;63.38;47.05;;;14.00;71.80;;;;;;4923451;28;96965;-63
2023/01/16 05:21:51;;;;;;;64.38;47.60;;;14.00;71.80;;;;;;4908123;28;95318;-55
2023/01/16 05:24:17;;;;;;;64.80;47.33;;;14.00;71.70;;;;;;4926832;28;96125;-65
2023/01/16 05:26:42;;;;;;;63.88;47.45;;;14.00;71.80;;;;;;4911098;28;95517;-66
2023/01/16 05:29:08;;;;;;;65.35;47.80;;;13.90;71.90;;;;;;4918263;28;94197;-65
2023/01/16 05:31:34;;;;;;;64.05;47.70;;;14.00;71.60;;;;;;4933275;28;95587;-67
2023/01/16 05:33:59;;;;;;;65.78;47.65;;;14.00;72.40;;;;;;4910333;28;95177;-65
2023/01/16 05:36:25;;;;;;;65.80;47.42;;;14.00;71.70;;;;;;4918157;28;96147;-65
2023/01/16 05:38:51;;;;;;;64.15;47.63;;;14.00;71.80;;;;;;4922282;28;96429;-65
2023/01/16 05:41:16;;;;;;;66.45;47.63;;;14.00;71.80;;;;;;4914562;28;97541;-65
2023/01/16 05:43:42;;;;;;;64.38;47.47;;;13.90;71.90;;;;;;4910504;28;97438;-66
2023/01/16 05:46:08;;;;;;;66.18;47.67;;;13.90;71.90;;;;;;4915536;28;99558;-65
2023/01/16 05:48:35;;;;;;;74.25;47.75;;;13.90;71.90;;;;;;4920820;28;97479;-55
2023/01/16 05:51:02;;;;;;;67.47;47.72;;;13.90;71.90;;;;;;4916020;28;95745;-65
2023/01/16 05:53:30;;;;;;;66.18;47.75;;;13.90;71.60;;;;;;4913281;28;96186;-62
2023/01/16 05:55:56;;;;;;;66.60;47.50;;;14.00;71.50;;;;;;4918625;28;95476;-66
2023/01/16 05:58:22;;;;;;;69.32;47.85;;;14.00;71.60;;;;;;4918710;28;95058;-65
2023/01/16 06:00:48;;;;;;;66.45;47.60;;;14.00;72.20;;;;;;4916303;28;96967;-66
2023/01/16 06:03:17;;;;;;;68.60;47.63;;;14.00;71.40;;;;;;4916379;28;98684;-66
2023/01/16 06:05:43;;;;;;;63.28;47.25;;;14.00;71.30;;;;;;4919480;28;101429;-66
2023/01/16 06:08:08;;;;;;;65.25;47.63;;;14.00;71.40;;;;;;4922460;28;95264;-64
2023/01/16 06:10:35;;;;;;;65.50;47.35;;;14.00;71.40;;;;;;4925286;28;96659;-67
2023/01/16 06:13:01;;;;;;;66.78;47.15;;;14.00;71.80;;;;;;4911082;28;94963;-64
2023/01/16 06:15:27;;;;;;;68.38;47.58;;;14.00;72.20;;;;;;4914641;28;95442;-56
2023/01/16 06:17:53;;;;;;;66.25;47.78;;;14.00;72.20;;;;;;4911689;28;96721;-67
2023/01/16 06:20:20;;;;;;;65.85;47.72;;;14.00;72.40;;;;;;4906174;28;96041;-65
2023/01/16 06:22:45;;;;;;;66.50;47.85;;;14.00;72.50;;;;;;4917040;28;97063;-65
2023/01/16 06:25:11;;;;;;;67.70;47.78;;;14.00;72.30;;;;;;4909193;28;99068;-60
2023/01/16 06:27:37;;;;;;;68.57;47.80;;;14.00;72.50;;;;;;4901470;28;96622;-64
2023/01/16 06:30:07;;;;;;;64.38;47.63;;;14.00;72.20;;;;;;4914011;28;95407;-66
2023/01/16 06:32:33;;;;;;;66.65;47.90;;;14.00;72.50;;;;;;4911959;28;95071;-66
2023/01/16 06:34:59;;;;;;;66.45;47.65;;;14.00;73.60;;;;;;4913789;28;96074;-64
2023/01/16 06:37:24;;;;;;;66.40;47.35;;;13.90;73.20;;;;;;4923669;28;95635;-63
2023/01/16 06:39:50;;;;;;;68.32;48.13;;;13.90;73.50;;;;;;4909884;28;95569;-65
2023/01/16 06:42:15;;;;;;;66.97;47.60;;;13.90;73.70;;;;;;4924830;28;94510;-65
2023/01/16 06:44:41;;;;;;;66.53;47.53;;;14.00;73.70;;;;;;4918985;28;95097;-65
2023/01/16 06:47:08;;;;;;;64.85;47.28;;;14.00;73.90;;;;;;4915524;28;99667;-65
2023/01/16 06:49:34;;;;;;;68.50;47.92;;;14.00;73.60;;;;;;4916729;28;98137;-56
2023/01/16 06:52:00;;;;;;;70.85;47.78;;;14.00;73.70;;;;;;4939342;28;95998;-66
2023/01/16 06:54:26;;;;;;;71.65;47.65;;;14.00;74.00;;;;;;4922624;28;96634;-65
2023/01/16 06:56:52;;;;;;;66.25;47.53;;;13.90;74.60;;;;;;4913259;28;94747;-66
2023/01/16 06:59:17;;;;;;;64.78;47.75;;;14.00;74.90;;;;;;4919446;28;95484;-65
2023/01/16 07:01:43;;;;;;;67.95;47.97;;;13.90;76.20;;;;;;4917455;28;96459;-65
2023/01/16 07:04:09;;;;;;;71.15;47.90;;;13.90;77.00;;;;;;4924346;28;100781;-66
2023/01/16 07:06:36;;;;;;;66.85;48.03;;;14.00;77.30;;;;;;4919430;28;94562;-63
2023/01/16 07:09:02;;;;;;;71.82;48.22;;;14.00;77.20;;;;;;4920838;28;100843;-64
2023/01/16 07:11:27;;;;;;;72.40;48.05;;;14.00;77.50;;;;;;4916757;28;96254;-65
2023/01/16 07:22:34;;;;;;;66.63;47.55;;;14.00;78.30;;;;;;4916994;28;97076;-65
2023/01/16 07:24:56;;;;;;;70.03;47.78;;;14.10;79.80;;;;;;4910797;28;95644;-58
2023/01/16 07:27:22;;;;;;;66.45;47.70;;;14.20;80.20;;;;;;4922617;28;96057;-66
2023/01/16 07:29:48;;;;;;;68.82;48.00;;;14.10;80.70;;;;;;4911254;28;96976;-60
2023/01/16 07:32:13;;;;;;;71.60;48.00;;;14.10;80.60;;;;;;4933217;28;94744;-65
2023/01/16 07:34:39;;;;;;;71.88;48.45;;;14.30;80.40;;;;;;4917778;28;95792;-62
2023/01/16 07:37:07;;;;;;;66.75;48.00;;;14.40;78.90;;;;;;4915001;28;98217;-65
2023/01/16 07:39:32;;;;;;;70.72;48.35;;;14.40;79.20;;;;;;4914170;28;98032;-64
2023/01/16 07:42:05;;;;;;;68.70;48.13;;;14.50;79.80;;;;;;4907710;28;95514;-63
2023/01/16 07:44:31;;;;;;;70.65;48.33;;;14.50;79.90;;;;;;4921913;28;94891;-64
2023/01/16 07:46:57;;;;;;;70.07;48.28;;;14.50;79.70;;;;;;4901881;28;95930;-62
2023/01/16 07:49:22;;;;;;;71.30;48.42;;;14.50;79.10;;;;;;4911381;28;95017;-62
2023/01/16 07:51:48;;;;;;;69.05;48.63;;;14.40;79.60;;;;;;4922314;28;98331;-63
2023/01/16 07:54:14;;;;;;;71.80;48.88;;;14.40;79.60;;;;;;4923873;28;96897;-70
2023/01/16 07:56:39;;;;;;;70.53;49.13;;;14.40;79.70;;;;;;4917028;28;94916;-69
2023/01/16 07:59:06;;;;;;;77.70;50.00;;;14.40;80.60;;;;;;4922182;28;96877;-74
2023/01/16 08:01:31;;;;;;;73.85;50.05;;;14.40;80.80;;;;;;4915711;28;95855;-64
2023/01/16 08:03:57;;;;;;;74.38;49.92;;;14.40;81.30;;;;;;4913151;28;96659;-65
2023/01/16 08:06:23;;;;;;;77.15;50.38;;;14.40;80.00;;;;;;4911938;28;97042;-66
2023/01/16 08:08:48;;;;;;;75.07;50.53;;;14.40;79.20;;;;;;4914569;28;96398;-59
2023/01/16 08:13:59;;;;;;;68.88;49.28;;;14.40;80.40;;;;;;4913241;28;95223;-58
2023/01/16 08:16:24;;;;;;;74.90;49.60;;;14.40;80.90;;;;;;4918051;28;99982;-62
2023/01/16 08:18:50;;;;;;;74.63;50.28;;;14.40;81.70;;;;;;4921019;28;95540;-62
2023/01/16 08:21:17;;;;;;;76.30;50.75;;;14.50;81.70;;;;;;4909083;28;94391;-56
2023/01/16 08:23:43;;;;;;;86.00;50.78;;;14.50;81.40;;;;;;4914123;28;96164;-61
2023/01/16 08:26:09;;;;;;;83.72;50.45;;;14.40;80.50;;;;;;4913909;28;96816;-60
2023/01/16 08:28:35;;;;;;;85.95;50.95;;;14.40;79.70;;;;;;4925013;28;96843;-59
2023/01/16 08:31:11;;;;;;;84.60;50.25;;;14.40;78.30;;;;;;4920247;28;96131;-57
2023/01/16 08:33:38;;;;;;;82.57;50.15;;;14.40;77.80;;;;;;4928439;28;97700;-60
2023/01/16 08:36:05;;;;;;;85.88;50.40;;;14.30;77.20;;;;;;4918957;28;99676;-58
2023/01/16 08:38:31;;;;;;;84.32;50.33;;;14.30;76.90;;;;;;4919895;28;95232;-54
2023/01/16 08:40:57;;;;;;;85.28;50.00;;;14.30;76.60;;;;;;4919763;28;95953;-55
2023/01/16 08:51:49;;;;;;;84.90;50.15;;;14.30;75.60;;;;;;4918767;28;95478;-60
2023/01/16 08:54:15;;;;;;;81.70;50.17;;;14.20;75.50;;;;;;4919538;28;96878;-60
2023/01/16 08:56:42;;;;;;;84.70;49.88;;;14.30;75.40;;;;;;4921868;28;95829;-60
2023/01/16 08:59:10;;;;;;;85.97;50.08;;;14.20;75.10;;;;;;4929570;28;94935;-60
2023/01/16 09:01:39;;;;;;;84.93;49.92;;;14.30;75.10;;;;;;4915861;28;96921;-61
2023/01/16 09:04:05;;;;;;;84.38;49.58;;;14.20;74.90;;;;;;4923445;28;95443;-60
2023/01/16 09:06:31;;;;;;;93.63;50.95;;;14.20;74.90;;;;;;4922030;28;97083;-59
2023/01/16 09:08:57;;;;;;;89.78;50.42;;;14.20;74.70;;;;;;4926958;28;94897;-60
2023/01/16 09:14:07;;;;;;;84.10;49.58;;;14.20;74.40;;;;;;4917203;28;95457;-60
2023/01/16 09:16:33;;;;;;;84.00;49.65;;;14.20;74.30;;;;;;4935106;28;95046;-60
2023/01/16 09:18:58;;;;;;;82.32;49.85;;;14.20;74.10;;;;;;4928417;28;96519;-54
2023/01/16 09:21:24;;;;;;;83.28;49.75;;;14.20;74.20;;;;;;4924561;28;96813;-61
2023/01/16 09:23:50;;;;;;;83.07;49.67;;;14.20;74.10;;;;;;4928033;28;95105;-59
2023/01/16 09:26:17;;;;;;;86.38;49.63;;;14.20;74.00;;;;;;4929225;28;95832;-59
2023/01/16 09:28:43;;;;;;;83.90;49.55;;;14.20;73.90;;;;;;4931533;28;95155;-60
2023/01/16 09:31:09;;;;;;;86.88;49.72;;;14.20;73.80;;;;;;4925007;28;96084;-60
2023/01/16 09:33:36;;;;;;;91.57;50.15;;;14.20;73.80;;;;;;4921461;28;95782;-62
2023/01/16 09:36:03;;;;;;;84.45;49.95;;;14.20;73.90;;;;;;4920339;28;96166;-56
2023/01/16 09:38:28;;;;;;;85.88;50.22;;;14.20;73.80;;;;;;4917899;28;95641;-58
2023/01/16 09:40:56;;;;;;;83.80;49.78;;;14.20;73.70;;;;;;4916417;28;95206;-55
2023/01/16 09:43:46;;;;;;;86.32;49.80;;;14.20;73.60;;;;;;4931249;28;96968;-58
2023/01/16 09:46:25;;;;;;;85.82;49.90;;;14.20;73.50;;;;;;4922529;28;95494;-59
2023/01/16 09:49:02;;;;;;;87.65;50.25;;;14.20;73.40;;;;;;4921487;28;95362;-60
2023/01/16 09:51:34;;;;;;;86.93;50.17;;;14.20;73.30;;;;;;4925686;28;96728;-59
2023/01/16 09:59:54;;;;;;;85.75;49.92;;;14.20;73.80;;;;;;4927557;28;98282;-61
2023/01/16 10:02:22;;;;;;;85.90;49.75;;;14.20;73.10;;;;;;4923494;28;94103;-60
2023/01/16 10:04:50;;;;;;;86.03;49.67;;;14.20;73.00;;;;;;4916736;28;95191;-57
2023/01/16 10:07:37;;;;;;;85.57;50.05;;;14.20;72.80;;;;;;4922034;28;95633;-59
2023/01/16 10:10:25;;;;;;;85.82;49.83;;;14.20;73.00;;;;;;4923968;28;96526;-59
2023/01/16 10:13:25;;;;;;;88.85;49.65;;;14.20;72.90;;;;;;4928429;28;94822;-52
2023/01/16 10:16:12;;;;;;;86.05;49.65;;;14.20;72.90;;;;;;4914375;28;95247;-60
2023/01/16 10:18:37;;;;;;;86.07;49.75;;;14.20;72.80;;;;;;4923781;28;95655;-61
2023/01/16 10:21:09;;;;;;;86.57;49.75;;;14.20;72.80;;;;;;4934459;28;95321;-60
2023/01/16 10:23:37;;;;;;;86.05;50.03;;;14.20;72.60;;;;;;4924860;28;94982;-59
2023/01/16 10:26:09;;;;;;;86.45;49.92;;;14.20;72.80;;;;;;4927354;28;95115;-59
2023/01/16 10:29:09;;;;;;;87.38;50.08;;;14.20;72.80;;;;;;4914958;28;100151;-60
2023/01/16 10:32:15;;;;;;;85.55;49.58;;;14.10;72.70;;;;;;4902248;28;95448;-60
2023/01/16 10:35:03;;;;;;;86.82;49.75;;;14.10;72.80;;;;;;4920537;28;97211;-60
2023/01/16 10:37:29;;;;;;;85.43;49.55;;;14.20;72.70;;;;;;4920750;28;97445;-57
2023/01/16 10:39:58;;;;;;;86.20;49.75;;;14.20;72.70;;;;;;4917798;28;96085;-60
2023/01/16 10:51:01;;;;;;;87.53;50.00;;;14.20;72.40;;;;;;4921206;28;96152;-61
2023/01/16 10:53:27;;;;;;;87.25;49.92;;;14.20;72.40;;;;;;4924852;28;95023;-58
2023/01/16 10:55:54;;;;;;;88.72;50.22;;;14.20;72.30;;;;;;4915003;28;95215;-60
2023/01/16 10:58:27;;;;;;;88.40;50.08;;;14.20;72.40;;;;;;4921296;28;95428;-62
2023/01/16 11:01:17;;;;;;;88.22;50.17;;;14.20;72.30;;;;;;4917554;28;95653;-61
2023/01/16 11:03:47;;;;;;;88.88;50.35;;;14.20;72.20;;;;;;4919476;28;96731;-60
2023/01/16 11:06:21;;;;;;;91.78;50.30;;;14.20;72.30;;;;;;4928504;28;95440;-59
2023/01/16 11:08:52;;;;;;;89.60;50.10;;;14.20;72.30;;;;;;4922613;28;95070;-54
2023/01/16 11:20:23;;;;;;;86.47;49.90;;;14.20;72.30;;;;;;4930575;28;96538;-59
2023/01/16 11:22:58;;;;;;;87.60;49.85;;;14.20;72.30;;;;;;4918856;28;96478;-61
2023/01/16 11:25:27;;;;;;;86.95;50.03;;;14.20;72.30;;;;;;4915030;28;96361;-57
2023/01/16 11:27:55;;;;;;;87.28;50.20;;;14.20;72.30;;;;;;4921292;28;98215;-60
2023/01/16 11:30:28;;;;;;;87.78;50.05;;;14.20;72.30;;;;;;4924335;28;96920;-58
2023/01/16 11:32:56;;;;;;;87.22;49.92;;;14.20;72.20;;;;;;4923555;28;96485;-58
2023/01/16 11:35:31;;;;;;;87.55;49.75;;;14.20;72.30;;;;;;4920031;28;95239;-59
2023/01/16 11:37:58;;;;;;;86.78;49.83;;;14.20;72.20;;;;;;4930071;28;95757;-60
2023/01/16 11:40:26;;;;;;;87.32;49.92;;;14.20;72.10;;;;;;4925645;28;95310;-59
2023/01/16 11:48:44;;;;;;;85.88;49.75;;;14.20;72.10;;;;;;4929950;28;94194;-60
2023/01/16 11:51:18;;;;;;;86.88;49.78;;;14.20;72.20;;;;;;4919964;28;95761;-60
2023/01/16 11:53:46;;;;;;;85.63;49.58;;;14.20;72.10;;;;;;4924366;28;95601;-59
2023/01/16 11:56:33;;;;;;;86.00;49.70;;;14.20;72.10;;;;;;4920225;28;96045;-58
2023/01/16 11:59:20;;;;;;;87.00;50.22;;;14.20;72.00;;;;;;4919973;28;95747;-60
2023/01/16 12:04:36;;;;;;;85.70;49.92;;;14.20;72.10;;;;;;4915256;28;95322;-59
2023/01/16 12:07:23;;;;;;;86.75;49.75;;;14.20;72.10;;;;;;4923753;28;95475;-56
2023/01/16 12:10:41;;;;;;;85.25;49.70;;;14.10;72.10;;;;;;4929284;28;95258;-59
2023/01/16 12:16:10;;;;;;;84.78;49.45;;;14.10;72.10;;;;;;4920162;28;96313;-59
2023/01/16 12:19:12;;;;;;;86.03;49.53;;;14.10;72.10;;;;;;4920760;28;96038;-58
2023/01/16 12:21:49;;;;;;;;;;;14.10;72.10;;;;;;4921682;28;96279;-59
2023/01/16 12:24:15;;;;;;;84.30;49.20;;;14.10;72.90;;;;;;4923735;28;100014;-59
2023/01/16 12:26:56;;;;;;;85.78;49.42;;;14.10;72.10;;;;;;4926474;28;95667;-60
2023/01/16 12:29:53;;;;;;;88.40;49.92;;;14.10;72.20;;;;;;4928639;28;95266;-60
2023/01/16 12:32:37;;;;;;;85.47;49.88;;;14.10;72.10;;;;;;4932189;28;95127;-53
2023/01/16 12:35:35;;;;;;;85.45;49.45;;;14.10;72.00;;;;;;4924907;28;95242;-60
2023/01/16 12:38:16;;;;;;;87.40;50.13;;;14.00;71.90;;;;;;4929161;28;95023;-59
2023/01/16 12:43:17;;;;;;;85.55;49.35;;;14.00;72.10;;;;;;4930675;28;96515;-60
2023/01/16 12:43:49;;;;;;;85.43;49.35;;;14.00;72.10;;;;;;4929962;28;95698;-60
2023/01/16 12:46:27;;;;;;;85.32;49.58;;;14.00;71.90;;;;;;4923795;28;96104;-60
2023/01/16 12:49:04;;;;;;;85.35;49.75;;;14.00;72.20;;;;;;4917929;28;102106;-59
2023/01/16 12:51:42;;;;;;;85.55;49.65;;;13.90;72.90;;;;;;4921013;28;97467;-60
2023/01/16 12:54:22;;;;;;;85.85;49.88;;;13.90;72.00;;;;;;4923778;28;95904;-60
2023/01/16 12:57:03;;;;;;;86.28;49.60;;;14.00;72.10;;;;;;4927607;28;95619;-59
2023/01/16 12:59:34;;;;;;;84.28;49.38;;;14.00;72.00;;;;;;4931828;28;96042;-60
2023/01/16 13:02:22;;;;;;;;;;;14.00;71.90;;;;;;4933408;28;95073;-60
2023/01/16 13:05:04;;;;;;;86.00;49.20;;;14.00;72.00;;;;;;4917216;28;95703;-61
2023/01/16 13:07:34;;;;;;;84.85;49.35;;;13.90;72.00;;;;;;4923697;28;96548;-58
2023/01/16 13:15:41;;;;;;;84.28;49.38;;;13.90;71.70;;;;;;4928522;28;95639;-60
2023/01/16 13:18:27;;;;;;;86.53;49.97;;;13.90;72.10;;;;;;4927440;28;97160;-59
2023/01/16 13:20:57;;;;;;;85.90;49.67;;;13.90;72.00;;;;;;4925315;28;95006;-60
2023/01/16 13:23:29;;;;;;;85.03;49.45;;;13.90;71.70;;;;;;4934700;28;97565;-60
2023/01/16 13:26:02;;;;;;;84.57;49.35;;;13.80;71.90;;;;;;4924506;28;96490;-59
2023/01/16 13:28:47;;;;;;;86.85;49.75;;;13.80;72.00;;;;;;4923452;28;96547;-58
2023/01/16 13:31:18;;;;;;;84.32;49.45;;;13.80;71.90;;;;;;4926421;28;95771;-59
2023/01/16 13:33:48;;;;;;;85.30;49.40;;;13.80;72.20;;;;;;4924394;28;95057;-59
2023/01/16 13:36:46;;;;;;;86.30;49.50;;;13.80;71.80;;;;;;4934318;28;98248;-59
2023/01/16 13:39:51;;;;;;;86.55;49.63;;;13.80;72.20;;;;;;4930613;28;96047;-59
2023/01/16 13:42:19;;;;;;;84.68;49.28;;;13.80;72.30;;;;;;4922988;28;95843;-58
2023/01/16 13:47:47;;;;;;;83.20;49.20;;;13.80;71.90;;;;;;4918516;28;95242;-60
2023/01/16 13:50:26;;;;;;;84.43;49.35;;;13.80;72.10;;;;;;4928211;28;95207;-60
2023/01/16 13:53:00;;;;;;;84.45;49.28;;;13.80;72.00;;;;;;4926653;28;95305;-60
2023/01/16 13:55:35;;;;;;;85.30;49.15;;;13.80;72.40;;;;;;4918438;28;95946;-60
2023/01/16 13:58:20;;;;;;;82.45;49.20;;;13.80;72.10;;;;;;4921039;28;95615;-55
2023/01/16 14:00:55;;;;;;;84.47;49.58;;;13.80;72.20;;;;;;4920310;28;96648;-59
2023/01/16 14:03:24;;;;;;;84.25;49.45;;;13.80;72.20;;;;;;4925776;28;95185;-57